Time,TemperatureF,DewpointF,PressureIn,WindDirection,WindDirectionDegrees,WindSpeedMPH,WindSpeedGustMPH,Humidity,HourlyPrecipIn,Conditions,Clouds,dailyrainin,SoftwareType,DateUTC
2013-06-04 00:01:00,66.0,60.0,29.79,NW,315,0.0,0.0,81,0.00,RA,,0.00,WeatherDisplay:10.37,2013-06-04 04:01:00,
2013-06-04 00:02:00,66.2,60.2,29.80,SW,225,0.0,0.0,81,0.00,RA,,0.00,WeatherDisplay:10.37,2013-06-04 04:02:00,
2013-06-04 00:07:00,66.0,60.0,29.80,South,180,0.0,0.0,81,0.00,RA,,0.00,WeatherDisplay:10.37,2013-06-04 04:07:00,
2013-06-04 00:12:00,66.0,60.0,29.80,South,180,0.0,0.0,81,0.00,,,0.00,WeatherDisplay:10.37,2013-06-04 04:12:00,
2013-06-04 00:17:00,65.8,60.2,29.80,South,180,0.0,0.0,82,0.00,,,0.00,WeatherDisplay:10.37,2013-06-04 04:17:00,
2013-06-04 00:22:00,65.8,60.2,29.80,NNE,22,0.0,0.0,82,0.00,,,0.00,WeatherDisplay:10.37,2013-06-04 04:22:00,
2013-06-04 00:27:00,65.8,60.2,29.80,North,0,0.0,0.0,82,0.00,,,0.00,WeatherDisplay:10.37,2013-06-04 04:27:00,
2013-06-04 00:32:00,65.7,60.0,29.80,North,0,0.0,0.0,82,0.00,,,0.00,WeatherDisplay:10.37,2013-06-04 04:32:00,
2013-06-04 00:37:00,65.7,60.0,29.80,NE,45,0.0,0.0,82,0.00,,,0.00,WeatherDisplay:10.37,2013-06-04 04:37:00,
2013-06-04 00:42:00,65.5,59.8,29.80,East,90,0.0,0.0,82,0.00,,,0.00,WeatherDisplay:10.37,2013-06-04 04:42:00,
2013-06-04 00:47:00,65.3,59.7,29.79,NE,45,0.0,0.0,82,0.00,,,0.00,WeatherDisplay:10.37,2013-06-04 04:47:00,
2013-06-04 00:52:00,65.1,59.8,29.79,NE,45,0.0,0.0,83,0.00,,,0.00,WeatherDisplay:10.37,2013-06-04 04:52:00,
2013-06-04 00:57:00,65.1,59.8,29.80,NE,45,0.0,0.0,83,0.00,,,0.00,WeatherDisplay:10.37,2013-06-04 04:57:00,
2013-06-04 01:02:00,64.9,59.7,29.80,SSW,202,0.2,1.1,83,0.00,,,0.00,WeatherDisplay:10.37,2013-06-04 05:02:00,
2013-06-04 01:07:00,64.9,59.7,29.80,WSW,248,0.0,0.0,83,0.00,,,0.00,WeatherDisplay:10.37,2013-06-04 05:07:00,
2013-06-04 01:12:00,64.9,59.7,29.80,WSW,248,0.0,0.0,83,0.00,,,0.00,WeatherDisplay:10.37,2013-06-04 05:12:00,
2013-06-04 01:17:00,64.9,59.7,29.80,WSW,248,0.0,0.0,83,0.00,,,0.00,WeatherDisplay:10.37,2013-06-04 05:17:00,
2013-06-04 01:22:00,64.8,59.8,29.80,West,270,0.0,0.0,84,0.00,,,0.00,WeatherDisplay:10.37,2013-06-04 05:22:00,
2013-06-04 01:27:00,64.6,59.6,29.80,WNW,292,0.0,0.0,84,0.00,,,0.00,WeatherDisplay:10.37,2013-06-04 05:27:00,
2013-06-04 01:32:00,64.6,59.6,29.80,South,180,0.0,0.0,84,0.00,,,0.00,WeatherDisplay:10.37,2013-06-04 05:32:00,
2013-06-04 01:37:00,64.6,59.6,29.80,East,90,0.0,0.0,84,0.00,,,0.00,WeatherDisplay:10.37,2013-06-04 05:37:00,
2013-06-04 01:42:00,64.6,59.6,29.80,East,90,0.0,0.0,84,0.00,,,0.00,WeatherDisplay:10.37,2013-06-04 05:42:00,
2013-06-04 01:47:00,64.6,59.6,29.80,East,90,0.0,0.0,84,0.00,,,0.00,WeatherDisplay:10.37,2013-06-04 05:47:00,
2013-06-04 01:52:00,64.4,59.5,29.80,East,90,0.0,0.0,84,0.00,,,0.00,WeatherDisplay:10.37,2013-06-04 05:52:00,
2013-06-04 01:57:00,64.2,59.3,29.80,East,90,0.0,0.0,84,0.00,,,0.00,WeatherDisplay:10.37,2013-06-04 05:57:00,
2013-06-04 02:02:00,64.2,59.3,29.80,East,90,0.0,0.0,84,0.00,,,0.00,WeatherDisplay:10.37,2013-06-04 06:02:00,
2013-06-04 02:07:00,64.0,59.1,29.80,East,90,0.0,0.0,84,0.00,,,0.00,WeatherDisplay:10.37,2013-06-04 06:07:00,
2013-06-04 02:12:00,64.0,59.1,29.80,East,90,0.0,0.0,84,0.00,,,0.00,WeatherDisplay:10.37,2013-06-04 06:12:00,
2013-06-04 02:17:00,63.7,58.8,29.80,East,90,0.0,0.0,84,0.00,,,0.00,WeatherDisplay:10.37,2013-06-04 06:17:00,
2013-06-04 02:22:00,63.7,58.8,29.79,NE,45,0.0,0.0,84,0.00,,,0.00,WeatherDisplay:10.37,2013-06-04 06:22:00,
2013-06-04 02:27:00,63.5,58.9,29.79,NE,45,0.0,0.0,85,0.00,,,0.00,WeatherDisplay:10.37,2013-06-04 06:27:00,
2013-06-04 02:32:00,63.3,58.7,29.79,NE,45,0.0,0.0,85,0.00,,,0.00,WeatherDisplay:10.37,2013-06-04 06:32:00,
2013-06-04 02:37:00,63.3,58.7,29.79,NE,45,0.0,0.0,85,0.00,,,0.00,WeatherDisplay:10.37,2013-06-04 06:37:00,
2013-06-04 02:42:00,63.1,58.6,29.80,NE,45,0.0,0.0,85,0.00,,,0.00,WeatherDisplay:10.37,2013-06-04 06:42:00,
2013-06-04 02:47:00,63.1,58.6,29.80,NE,45,0.0,0.0,85,0.00,,,0.00,WeatherDisplay:10.37,2013-06-04 06:47:00,
2013-06-04 02:52:00,63.0,58.7,29.80,NE,45,0.0,0.0,86,0.00,,,0.00,WeatherDisplay:10.37,2013-06-04 06:52:00,
2013-06-04 02:57:00,62.8,58.2,29.80,NE,45,0.0,0.0,85,0.00,,,0.00,WeatherDisplay:10.37,2013-06-04 06:57:00,
2013-06-04 03:02:00,62.6,58.4,29.79,NE,45,0.0,0.0,86,0.00,,,0.00,WeatherDisplay:10.37,2013-06-04 07:02:00,
2013-06-04 03:07:00,62.6,58.4,29.79,NE,45,0.0,0.0,86,0.00,,,0.00,WeatherDisplay:10.37,2013-06-04 07:07:00,
2013-06-04 03:12:00,62.6,58.7,29.79,NE,45,0.0,0.0,87,0.00,,,0.00,WeatherDisplay:10.37,2013-06-04 07:12:00,
2013-06-04 03:17:00,62.8,58.9,29.79,NE,45,0.0,0.0,87,0.00,,,0.00,WeatherDisplay:10.37,2013-06-04 07:17:00,
2013-06-04 03:22:00,62.6,58.7,29.79,NE,45,0.0,0.0,87,0.00,,,0.00,WeatherDisplay:10.37,2013-06-04 07:22:00,
2013-06-04 03:27:00,62.6,58.7,29.78,NE,45,0.0,0.0,87,0.00,,,0.00,WeatherDisplay:10.37,2013-06-04 07:27:00,
2013-06-04 03:32:00,62.6,58.7,29.79,NE,45,0.0,0.0,87,0.00,,,0.00,WeatherDisplay:10.37,2013-06-04 07:32:00,
2013-06-04 03:37:00,62.4,58.5,29.79,NE,45,0.0,0.0,87,0.00,,,0.00,WeatherDisplay:10.37,2013-06-04 07:37:00,
2013-06-04 03:42:00,62.4,58.5,29.79,NE,45,0.0,0.0,87,0.00,,,0.00,WeatherDisplay:10.37,2013-06-04 07:42:00,
2013-06-04 03:47:00,62.2,58.3,29.78,NE,45,0.0,0.0,87,0.00,,,0.00,WeatherDisplay:10.37,2013-06-04 07:47:00,
2013-06-04 03:52:00,62.2,58.3,29.78,NE,45,0.0,0.0,87,0.00,,,0.00,WeatherDisplay:10.37,2013-06-04 07:52:00,
2013-06-04 03:57:00,62.1,58.1,29.79,NE,45,0.0,0.0,87,0.00,,,0.00,WeatherDisplay:10.37,2013-06-04 07:57:00,
2013-06-04 04:02:00,61.9,58.3,29.78,NE,45,0.0,0.0,88,0.00,,,0.00,WeatherDisplay:10.37,2013-06-04 08:02:00,
2013-06-04 04:07:00,61.9,58.3,29.79,NE,45,0.0,0.0,88,0.00,,,0.00,WeatherDisplay:10.37,2013-06-04 08:07:00,
2013-06-04 04:12:00,61.7,58.1,29.78,NE,45,0.0,0.0,88,0.00,,,0.00,WeatherDisplay:10.37,2013-06-04 08:12:00,
2013-06-04 04:17:00,61.7,58.1,29.78,NE,45,0.0,0.0,88,0.00,,,0.00,WeatherDisplay:10.37,2013-06-04 08:17:00,
2013-06-04 04:22:00,61.7,58.1,29.78,NE,45,0.0,0.0,88,0.00,,,0.00,WeatherDisplay:10.37,2013-06-04 08:22:00,
2013-06-04 04:27:00,61.5,57.9,29.78,NE,45,0.0,0.0,88,0.00,,,0.00,WeatherDisplay:10.37,2013-06-04 08:27:00,
2013-06-04 04:32:00,61.5,57.9,29.78,NE,45,0.0,0.0,88,0.00,,,0.00,WeatherDisplay:10.37,2013-06-04 08:32:00,
2013-06-04 04:37:00,61.3,57.8,29.79,NE,45,0.0,0.0,88,0.00,,,0.00,WeatherDisplay:10.37,2013-06-04 08:37:00,
2013-06-04 04:42:00,61.3,57.8,29.79,NE,45,0.0,0.0,88,0.00,,,0.00,WeatherDisplay:10.37,2013-06-04 08:42:00,
2013-06-04 04:47:00,61.2,57.6,29.79,NE,45,0.0,0.0,88,0.00,,,0.00,WeatherDisplay:10.37,2013-06-04 08:47:00,
2013-06-04 04:52:00,61.2,57.6,29.79,NE,45,0.0,0.0,88,0.00,,,0.00,WeatherDisplay:10.37,2013-06-04 08:52:00,
2013-06-04 04:57:00,61.0,57.4,29.79,NE,45,0.0,0.0,88,0.00,,,0.00,WeatherDisplay:10.37,2013-06-04 08:57:00,
2013-06-04 05:02:00,61.0,57.4,29.79,NE,45,0.0,0.0,88,0.00,,,0.00,WeatherDisplay:10.37,2013-06-04 09:02:00,
2013-06-04 05:07:00,61.0,57.4,29.79,NE,45,0.0,0.0,88,0.00,,,0.00,WeatherDisplay:10.37,2013-06-04 09:07:00,
2013-06-04 05:12:00,61.0,57.4,29.79,NE,45,0.0,0.0,88,0.00,,,0.00,WeatherDisplay:10.37,2013-06-04 09:12:00,
2013-06-04 05:17:00,60.8,57.2,29.79,NE,45,0.0,0.0,88,0.00,,,0.00,WeatherDisplay:10.37,2013-06-04 09:17:00,
2013-06-04 05:22:00,60.6,57.0,29.80,NE,45,0.0,0.0,88,0.00,,,0.00,WeatherDisplay:10.37,2013-06-04 09:22:00,
2013-06-04 05:27:00,60.6,57.0,29.80,NE,45,0.0,0.0,88,0.00,,,0.00,WeatherDisplay:10.37,2013-06-04 09:27:00,
2013-06-04 05:32:00,60.4,56.9,29.80,NE,45,0.0,0.0,88,0.00,,,0.00,WeatherDisplay:10.37,2013-06-04 09:32:00,
2013-06-04 05:37:00,60.4,57.2,29.80,NE,45,0.0,0.0,89,0.00,,,0.00,WeatherDisplay:10.37,2013-06-04 09:37:00,
2013-06-04 05:42:00,60.4,57.2,29.80,NE,45,0.0,0.0,89,0.00,,,0.00,WeatherDisplay:10.37,2013-06-04 09:42:00,
2013-06-04 05:47:00,60.4,57.2,29.80,NE,45,0.0,0.0,89,0.00,,,0.00,WeatherDisplay:10.37,2013-06-04 09:47:00,
2013-06-04 05:52:00,60.4,57.2,29.81,NE,45,0.0,0.0,89,0.00,,,0.00,WeatherDisplay:10.37,2013-06-04 09:52:00,
2013-06-04 05:57:00,60.4,57.2,29.81,NE,45,0.0,0.0,89,0.00,,,0.00,WeatherDisplay:10.37,2013-06-04 09:57:00,
2013-06-04 06:02:00,60.4,57.2,29.81,NE,45,0.0,0.0,89,0.00,,,0.00,WeatherDisplay:10.37,2013-06-04 10:02:00,
2013-06-04 06:07:00,60.3,57.0,29.81,NE,45,0.0,0.0,89,0.00,,,0.00,WeatherDisplay:10.37,2013-06-04 10:07:00,
2013-06-04 06:12:00,60.4,57.2,29.81,NE,45,0.0,0.0,89,0.00,,,0.00,WeatherDisplay:10.37,2013-06-04 10:12:00,
2013-06-04 06:17:00,60.4,57.2,29.81,NE,45,0.0,0.0,89,0.00,,,0.00,WeatherDisplay:10.37,2013-06-04 10:17:00,
2013-06-04 06:22:00,60.4,57.2,29.81,NE,45,0.0,0.0,89,0.00,,,0.00,WeatherDisplay:10.37,2013-06-04 10:22:00,
2013-06-04 06:27:00,60.4,57.2,29.82,NE,45,0.0,0.0,89,0.00,,,0.00,WeatherDisplay:10.37,2013-06-04 10:27:00,
2013-06-04 06:32:00,60.4,57.2,29.81,NE,45,0.0,0.0,89,0.00,,,0.00,WeatherDisplay:10.37,2013-06-04 10:32:00,
2013-06-04 06:37:00,60.4,57.2,29.82,NE,45,0.0,0.0,89,0.00,,,0.00,WeatherDisplay:10.37,2013-06-04 10:37:00,
2013-06-04 06:42:00,60.4,57.2,29.82,NE,45,0.0,0.0,89,0.00,,,0.00,WeatherDisplay:10.37,2013-06-04 10:42:00,
2013-06-04 06:47:00,60.4,57.2,29.82,NE,45,0.0,0.0,89,0.00,,,0.00,WeatherDisplay:10.37,2013-06-04 10:47:00,
2013-06-04 06:52:00,60.4,57.2,29.82,NE,45,0.0,0.0,89,0.00,,,0.00,WeatherDisplay:10.37,2013-06-04 10:52:00,
2013-06-04 06:57:00,60.4,57.2,29.82,NE,45,0.0,0.0,89,0.00,,,0.00,WeatherDisplay:10.37,2013-06-04 10:57:00,
2013-06-04 07:02:00,60.4,57.2,29.83,NE,45,0.0,0.0,89,0.00,,,0.00,WeatherDisplay:10.37,2013-06-04 11:02:00,
2013-06-04 07:07:00,60.4,57.2,29.83,NE,45,0.0,0.0,89,0.00,,,0.00,WeatherDisplay:10.37,2013-06-04 11:07:00,
2013-06-04 07:12:00,60.4,57.5,29.83,NE,45,0.0,0.0,90,0.00,,,0.00,WeatherDisplay:10.37,2013-06-04 11:12:00,
2013-06-04 07:17:00,60.4,57.5,29.83,ESE,112,0.0,0.0,90,0.00,,,0.00,WeatherDisplay:10.37,2013-06-04 11:17:00,
2013-06-04 07:22:00,60.4,57.2,29.83,ESE,112,0.0,0.0,89,0.00,,,0.00,WeatherDisplay:10.37,2013-06-04 11:22:00,
2013-06-04 07:27:00,60.4,57.2,29.83,ESE,112,0.0,0.0,89,0.00,,,0.00,WeatherDisplay:10.37,2013-06-04 11:27:00,
2013-06-04 07:32:00,60.6,57.4,29.83,ESE,112,0.0,0.0,89,0.00,,,0.00,WeatherDisplay:10.37,2013-06-04 11:32:00,
2013-06-04 07:37:00,60.6,57.4,29.83,ESE,112,0.0,0.0,89,0.00,,,0.00,WeatherDisplay:10.37,2013-06-04 11:37:00,
2013-06-04 07:42:00,60.4,57.2,29.83,ESE,112,0.0,0.0,89,0.00,,,0.00,WeatherDisplay:10.37,2013-06-04 11:42:00,
2013-06-04 07:48:00,60.6,57.4,29.83,ESE,112,0.0,0.0,89,0.00,,,0.00,WeatherDisplay:10.37,2013-06-04 11:48:00,
2013-06-04 07:53:00,60.6,57.4,29.83,ESE,112,0.0,0.0,89,0.00,,,0.00,WeatherDisplay:10.37,2013-06-04 11:53:00,
2013-06-04 07:58:00,61.0,58.0,29.84,ESE,112,0.0,0.0,90,0.00,,,0.00,WeatherDisplay:10.37,2013-06-04 11:58:00,
2013-06-04 08:03:00,61.0,58.0,29.83,ESE,112,0.0,0.0,90,0.00,,,0.00,WeatherDisplay:10.37,2013-06-04 12:03:00,
2013-06-04 08:08:00,61.2,58.2,29.83,ESE,112,0.0,0.0,90,0.00,,,0.00,WeatherDisplay:10.37,2013-06-04 12:08:00,
2013-06-04 08:13:00,61.2,58.2,29.84,ESE,112,0.0,0.0,90,0.00,,,0.00,WeatherDisplay:10.37,2013-06-04 12:13:00,
2013-06-04 08:18:00,61.3,58.4,29.84,ESE,112,0.0,0.0,90,0.00,,,0.00,WeatherDisplay:10.37,2013-06-04 12:18:00,
2013-06-04 08:23:00,61.3,58.4,29.84,ESE,112,0.0,0.0,90,0.00,,,0.00,WeatherDisplay:10.37,2013-06-04 12:23:00,
2013-06-04 08:28:00,61.5,58.6,29.84,ESE,112,0.0,0.0,90,0.00,,,0.00,WeatherDisplay:10.37,2013-06-04 12:28:00,
2013-06-04 08:33:00,61.5,58.6,29.84,ESE,112,0.0,0.0,90,0.00,,,0.00,WeatherDisplay:10.37,2013-06-04 12:33:00,
2013-06-04 08:38:00,61.5,58.6,29.84,SSE,158,0.0,0.0,90,0.00,,,0.00,WeatherDisplay:10.37,2013-06-04 12:38:00,
2013-06-04 08:43:00,61.9,58.9,29.85,SSE,158,0.0,0.0,90,0.00,,,0.00,WeatherDisplay:10.37,2013-06-04 12:43:00,
2013-06-04 08:48:00,61.9,58.9,29.85,SSE,158,0.0,0.0,90,0.00,,,0.00,WeatherDisplay:10.37,2013-06-04 12:48:00,
2013-06-04 08:53:00,62.1,59.1,29.85,SSE,158,0.0,0.0,90,0.00,,,0.00,WeatherDisplay:10.37,2013-06-04 12:53:00,
2013-06-04 08:58:00,62.2,59.3,29.85,SSE,158,0.0,0.0,90,0.00,,,0.00,WeatherDisplay:10.37,2013-06-04 12:58:00,
2013-06-04 09:03:00,62.4,59.4,29.85,South,180,0.0,0.0,90,0.00,,,0.00,WeatherDisplay:10.37,2013-06-04 13:03:00,
2013-06-04 09:08:00,62.6,59.6,29.85,South,180,0.0,0.0,90,0.00,,,0.00,WeatherDisplay:10.37,2013-06-04 13:08:00,
2013-06-04 09:13:00,63.0,60.0,29.85,South,180,0.0,0.0,90,0.00,,,0.00,WeatherDisplay:10.37,2013-06-04 13:13:00,
2013-06-04 09:18:00,63.1,60.2,29.85,SW,225,0.0,0.0,90,0.00,,,0.00,WeatherDisplay:10.37,2013-06-04 13:18:00,
2013-06-04 09:23:00,63.3,60.3,29.85,SSW,202,0.0,0.0,90,0.00,,,0.00,WeatherDisplay:10.37,2013-06-04 13:23:00,
2013-06-04 09:28:00,63.7,60.4,29.85,SSW,202,0.0,0.0,89,0.00,,,0.00,WeatherDisplay:10.37,2013-06-04 13:28:00,
2013-06-04 09:33:00,64.0,60.7,29.85,South,180,0.0,0.0,89,0.00,,,0.00,WeatherDisplay:10.37,2013-06-04 13:33:00,
2013-06-04 09:38:00,64.2,60.9,29.85,SSW,202,0.0,0.0,89,0.00,,,0.00,WeatherDisplay:10.37,2013-06-04 13:38:00,
2013-06-04 09:43:00,64.6,61.6,29.86,SSW,202,0.0,1.1,90,0.00,,,0.00,WeatherDisplay:10.37,2013-06-04 13:43:00,
2013-06-04 09:48:00,64.8,61.4,29.86,SSW,202,0.0,0.0,89,0.00,,,0.00,WeatherDisplay:10.37,2013-06-04 13:48:00,
2013-06-04 09:53:00,64.9,61.6,29.86,SW,225,0.0,0.0,89,0.00,,,0.00,WeatherDisplay:10.37,2013-06-04 13:53:00,
2013-06-04 09:58:00,65.1,61.8,29.86,SSW,202,0.0,0.0,89,0.00,,,0.00,WeatherDisplay:10.37,2013-06-04 13:58:00,
2013-06-04 10:03:00,65.3,62.0,29.86,SSW,202,0.0,0.0,89,0.00,,,0.00,WeatherDisplay:10.37,2013-06-04 14:03:00,
2013-06-04 10:08:00,65.8,62.2,29.86,SW,225,0.4,1.1,88,0.00,,,0.00,WeatherDisplay:10.37,2013-06-04 14:08:00,
2013-06-04 10:13:00,66.0,62.4,29.85,SW,225,0.0,0.0,88,0.00,,,0.00,WeatherDisplay:10.37,2013-06-04 14:13:00,
2013-06-04 10:18:00,66.4,62.7,29.86,SSW,202,0.0,0.0,88,0.00,,,0.00,WeatherDisplay:10.37,2013-06-04 14:18:00,
2013-06-04 10:23:00,66.4,62.7,29.86,SSW,202,0.0,0.0,88,0.00,,,0.00,WeatherDisplay:10.37,2013-06-04 14:23:00,
2013-06-04 10:28:00,66.7,62.7,29.86,SSW,202,0.0,0.0,87,0.00,,,0.00,WeatherDisplay:10.37,2013-06-04 14:28:00,
2013-06-04 10:33:00,67.1,63.1,29.86,SW,225,0.0,0.0,87,0.00,,,0.00,WeatherDisplay:10.37,2013-06-04 14:33:00,
2013-06-04 10:38:00,67.3,63.3,29.86,South,180,0.0,0.0,87,0.00,,,0.00,WeatherDisplay:10.37,2013-06-04 14:38:00,
2013-06-04 10:43:00,67.8,63.5,29.86,WSW,248,0.0,0.0,86,0.00,,,0.00,WeatherDisplay:10.37,2013-06-04 14:43:00,
2013-06-04 10:48:00,68.4,64.0,29.85,South,180,0.0,0.0,86,0.00,,,0.00,WeatherDisplay:10.37,2013-06-04 14:48:00,
2013-06-04 10:58:00,69.3,64.6,29.85,SSE,158,0.0,0.0,85,0.00,,,0.00,WeatherDisplay:10.37,2013-06-04 14:58:00,
2013-06-04 11:03:00,69.6,64.6,29.85,SW,225,0.0,0.0,84,0.00,,,0.00,WeatherDisplay:10.37,2013-06-04 15:03:00,
2013-06-04 11:08:00,70.0,64.9,29.85,SSW,202,0.0,0.0,84,0.00,,,0.00,WeatherDisplay:10.37,2013-06-04 15:08:00,
2013-06-04 11:13:00,70.3,64.9,29.85,SSE,158,0.0,0.0,83,0.00,,,0.00,WeatherDisplay:10.37,2013-06-04 15:13:00,
2013-06-04 11:18:00,70.5,65.1,29.85,SSW,202,0.0,0.0,83,0.00,,,0.00,WeatherDisplay:10.37,2013-06-04 15:18:00,
2013-06-04 11:23:00,70.9,65.1,29.85,SSW,202,0.0,0.0,82,0.00,,,0.00,WeatherDisplay:10.37,2013-06-04 15:23:00,
2013-06-04 11:28:00,71.2,65.1,29.85,SW,225,0.1,0.0,81,0.00,,,0.00,WeatherDisplay:10.37,2013-06-04 15:28:00,
2013-06-04 11:33:00,71.4,64.9,29.85,SSW,202,0.0,0.0,80,0.00,,,0.00,WeatherDisplay:10.37,2013-06-04 15:33:00,
2013-06-04 11:38:00,71.8,64.9,29.85,SSW,202,0.0,0.0,79,0.00,,,0.00,WeatherDisplay:10.37,2013-06-04 15:38:00,
2013-06-04 11:43:00,71.8,64.9,29.85,SW,225,0.0,0.0,79,0.00,,,0.00,WeatherDisplay:10.37,2013-06-04 15:43:00,
2013-06-04 11:48:00,72.1,64.9,29.85,SSW,202,0.0,0.0,78,0.00,,,0.00,WeatherDisplay:10.37,2013-06-04 15:48:00,
2013-06-04 11:53:00,72.5,64.9,29.85,SSW,202,0.0,0.0,77,0.00,,,0.00,WeatherDisplay:10.37,2013-06-04 15:53:00,
2013-06-04 11:58:00,72.7,64.7,29.85,SE,135,0.0,0.0,76,0.00,,,0.00,WeatherDisplay:10.37,2013-06-04 15:58:00,
2013-06-04 12:03:00,72.9,64.1,29.85,SSW,202,0.0,0.0,74,0.00,,,0.00,WeatherDisplay:10.37,2013-06-04 16:03:00,
2013-06-04 12:08:00,73.2,64.8,29.85,SW,225,0.0,0.0,75,0.00,,,0.00,WeatherDisplay:10.37,2013-06-04 16:08:00,
2013-06-04 12:13:00,74.1,65.3,29.86,SW,225,0.2,1.1,74,0.00,,,0.00,WeatherDisplay:10.37,2013-06-04 16:13:00,
2013-06-04 12:18:00,75.0,66.2,29.86,WSW,248,0.0,0.0,74,0.00,,,0.00,WeatherDisplay:10.37,2013-06-04 16:18:00,
2013-06-04 12:23:00,75.9,65.0,29.86,South,180,0.0,0.0,69,0.00,,,0.00,WeatherDisplay:10.37,2013-06-04 16:23:00,
2013-06-04 12:28:00,76.1,65.6,29.86,SSW,202,0.0,0.0,70,0.00,,,0.00,WeatherDisplay:10.37,2013-06-04 16:28:00,
2013-06-04 12:33:00,76.3,65.8,29.86,South,180,0.0,0.0,70,0.00,,,0.00,WeatherDisplay:10.37,2013-06-04 16:33:00,
2013-06-04 12:38:00,76.8,65.9,29.86,SW,225,0.0,0.0,69,0.00,,,0.00,WeatherDisplay:10.37,2013-06-04 16:38:00,
2013-06-04 12:43:00,77.5,67.0,29.85,South,180,0.0,0.0,70,0.00,,,0.00,WeatherDisplay:10.37,2013-06-04 16:43:00,
2013-06-04 12:48:00,78.1,67.5,29.85,SSW,202,0.0,0.0,70,0.00,,,0.00,WeatherDisplay:10.37,2013-06-04 16:48:00,
2013-06-04 12:53:00,79.3,67.9,29.85,SSW,202,0.0,0.0,68,0.00,,,0.00,WeatherDisplay:10.37,2013-06-04 16:53:00,
2013-06-04 12:58:00,79.7,66.9,29.85,SE,135,0.0,0.0,65,0.00,,,0.00,WeatherDisplay:10.37,2013-06-04 16:58:00,
2013-06-04 13:03:00,80.1,66.8,29.85,SSW,202,0.1,1.3,64,0.00,,,0.00,WeatherDisplay:10.37,2013-06-04 17:03:00,
2013-06-04 13:08:00,79.7,66.0,29.85,SSW,202,0.0,0.0,63,0.00,,,0.00,WeatherDisplay:10.37,2013-06-04 17:08:00,
2013-06-04 13:13:00,79.5,66.3,29.85,SSW,202,0.0,0.0,64,0.00,,,0.00,WeatherDisplay:10.37,2013-06-04 17:13:00,
2013-06-04 13:18:00,78.6,65.4,29.85,SW,225,0.0,0.0,64,0.00,,,0.00,WeatherDisplay:10.37,2013-06-04 17:18:00,
2013-06-04 13:23:00,78.1,65.4,29.85,SSW,202,0.0,0.0,65,0.00,,,0.00,WeatherDisplay:10.37,2013-06-04 17:23:00,
2013-06-04 13:28:00,77.2,64.9,29.86,SSW,202,0.0,0.0,66,0.00,,,0.00,WeatherDisplay:10.37,2013-06-04 17:28:00,
2013-06-04 13:33:00,76.6,64.4,29.85,SSW,202,0.0,0.0,66,0.00,,,0.00,WeatherDisplay:10.37,2013-06-04 17:33:00,
2013-06-04 13:38:00,75.9,64.2,29.85,SSW,202,0.0,0.0,67,0.00,,,0.00,WeatherDisplay:10.37,2013-06-04 17:38:00,
2013-06-04 13:43:00,75.6,64.3,29.85,SSE,158,0.0,0.0,68,0.00,,,0.00,WeatherDisplay:10.37,2013-06-04 17:43:00,
2013-06-04 13:48:00,75.4,64.5,29.85,SSW,202,0.0,0.0,69,0.00,,,0.00,WeatherDisplay:10.37,2013-06-04 17:48:00,
2013-06-04 13:53:00,75.7,65.3,29.85,SE,135,0.0,0.0,70,0.00,,,0.00,WeatherDisplay:10.37,2013-06-04 17:53:00,
2013-06-04 13:58:00,76.6,65.7,29.85,SE,135,0.0,0.0,69,0.00,,,0.00,WeatherDisplay:10.37,2013-06-04 17:58:00,
2013-06-04 14:03:00,77.2,66.2,29.85,SSE,158,0.0,0.0,69,0.00,,,0.00,WeatherDisplay:10.37,2013-06-04 18:03:00,
2013-06-04 14:08:00,78.4,67.0,29.85,SSE,158,0.0,0.0,68,0.00,,,0.00,WeatherDisplay:10.37,2013-06-04 18:08:00,
2013-06-04 14:13:00,79.5,67.2,29.85,SSE,158,0.0,0.0,66,0.00,,,0.00,WeatherDisplay:10.37,2013-06-04 18:13:00,
2013-06-04 14:18:00,81.1,67.3,29.85,South,180,0.0,0.0,63,0.00,,,0.00,WeatherDisplay:10.37,2013-06-04 18:18:00,
2013-06-04 14:23:00,82.2,66.9,29.85,South,180,0.0,0.0,60,0.00,,,0.00,WeatherDisplay:10.37,2013-06-04 18:23:00,
2013-06-04 14:28:00,82.6,67.3,29.85,SW,225,0.0,0.0,60,0.00,,,0.00,WeatherDisplay:10.37,2013-06-04 18:28:00,
2013-06-04 14:33:00,83.3,68.0,29.85,SW,225,0.0,0.0,60,0.00,,,0.00,WeatherDisplay:10.37,2013-06-04 18:33:00,
2013-06-04 14:38:00,84.0,68.1,29.84,South,180,0.0,0.0,59,0.00,,,0.00,WeatherDisplay:10.37,2013-06-04 18:38:00,
2013-06-04 14:43:00,84.7,67.8,29.84,South,180,0.0,0.0,57,0.00,,,0.00,WeatherDisplay:10.37,2013-06-04 18:43:00,
2013-06-04 14:48:00,85.3,68.3,29.84,ESE,112,0.0,0.0,57,0.00,,,0.00,WeatherDisplay:10.37,2013-06-04 18:48:00,
2013-06-04 14:53:00,84.9,66.9,29.84,SW,225,0.0,0.0,55,0.00,,,0.00,WeatherDisplay:10.37,2013-06-04 18:53:00,
2013-06-04 14:58:00,84.0,66.6,29.84,SSE,158,0.0,0.0,56,0.00,,,0.00,WeatherDisplay:10.37,2013-06-04 18:58:00,
2013-06-04 15:03:00,83.1,66.3,29.84,SSW,202,0.0,0.0,57,0.00,,,0.00,WeatherDisplay:10.37,2013-06-04 19:03:00,
2013-06-04 15:08:00,82.6,66.3,29.83,SSW,202,0.0,0.0,58,0.00,,,0.00,WeatherDisplay:10.37,2013-06-04 19:08:00,
2013-06-04 15:13:00,82.0,66.3,29.84,WSW,248,0.0,0.0,59,0.00,,,0.00,WeatherDisplay:10.37,2013-06-04 19:13:00,
2013-06-04 15:18:00,81.1,65.5,29.84,SW,225,0.0,0.0,59,0.00,,,0.00,WeatherDisplay:10.37,2013-06-04 19:18:00,
2013-06-04 15:23:00,79.9,64.8,29.84,South,180,0.0,0.0,60,0.00,,,0.00,WeatherDisplay:10.37,2013-06-04 19:23:00,
2013-06-04 15:28:00,78.8,64.2,29.84,WSW,248,0.0,0.0,61,0.00,,,0.00,WeatherDisplay:10.37,2013-06-04 19:28:00,
2013-06-04 15:33:00,77.9,64.3,29.84,SW,225,0.0,0.0,63,0.00,,,0.00,WeatherDisplay:10.37,2013-06-04 19:33:00,
2013-06-04 15:38:00,77.5,64.4,29.83,SSW,202,0.0,0.0,64,0.00,,,0.00,WeatherDisplay:10.37,2013-06-04 19:38:00,
2013-06-04 15:43:00,77.5,64.8,29.84,South,180,0.0,0.0,65,0.00,,,0.00,WeatherDisplay:10.37,2013-06-04 19:43:00,
2013-06-04 15:48:00,77.5,65.3,29.83,South,180,0.0,0.0,66,0.00,,,0.00,WeatherDisplay:10.37,2013-06-04 19:48:00,
2013-06-04 15:53:00,77.2,65.4,29.84,WSW,248,0.0,0.0,67,0.00,,,0.00,WeatherDisplay:10.37,2013-06-04 19:53:00,
2013-06-04 15:58:00,76.6,64.9,29.84,WSW,248,0.0,0.0,67,0.00,,,0.00,WeatherDisplay:10.37,2013-06-04 19:58:00,
2013-06-04 16:03:00,75.9,64.6,29.85,SW,225,0.0,0.0,68,0.00,,,0.00,WeatherDisplay:10.37,2013-06-04 20:03:00,
2013-06-04 16:08:00,75.4,64.1,29.84,South,180,0.0,0.0,68,0.00,,,0.00,WeatherDisplay:10.37,2013-06-04 20:08:00,
2013-06-04 16:13:00,75.0,64.2,29.85,SSW,202,0.0,0.0,69,0.00,,,0.00,WeatherDisplay:10.37,2013-06-04 20:13:00,
2013-06-04 16:18:00,75.0,64.6,29.85,SSW,202,0.0,0.0,70,0.00,,,0.00,WeatherDisplay:10.37,2013-06-04 20:18:00,
2013-06-04 16:23:00,74.8,64.8,29.85,SSW,202,0.0,0.0,71,0.00,,,0.00,WeatherDisplay:10.37,2013-06-04 20:23:00,
2013-06-04 16:28:00,74.8,64.8,29.84,West,270,0.0,0.0,71,0.00,,,0.00,WeatherDisplay:10.37,2013-06-04 20:28:00,
2013-06-04 16:33:00,74.8,64.8,29.84,SSW,202,0.0,0.0,71,0.00,,,0.00,WeatherDisplay:10.37,2013-06-04 20:33:00,
2013-06-04 16:38:00,74.7,64.6,29.84,SSW,202,0.0,0.0,71,0.00,,,0.00,WeatherDisplay:10.37,2013-06-04 20:38:00,
2013-06-04 16:43:00,74.5,64.5,29.85,South,180,0.0,0.0,71,0.00,,,0.00,WeatherDisplay:10.37,2013-06-04 20:43:00,
2013-06-04 16:48:00,74.1,64.1,29.84,SSW,202,0.0,0.0,71,0.00,,,0.00,WeatherDisplay:10.37,2013-06-04 20:48:00,
2013-06-04 16:53:00,73.8,64.2,29.84,SW,225,0.0,0.0,72,0.00,,,0.00,WeatherDisplay:10.37,2013-06-04 20:53:00,
2013-06-04 16:58:00,73.6,64.4,29.84,SW,225,0.0,0.0,73,0.00,,,0.00,WeatherDisplay:10.37,2013-06-04 20:58:00,
2013-06-04 17:03:00,73.6,64.4,29.84,SW,225,0.0,0.0,73,0.00,,,0.00,WeatherDisplay:10.37,2013-06-04 21:03:00,
2013-06-04 17:08:00,73.6,64.8,29.84,SSW,202,0.0,0.0,74,0.00,,,0.00,WeatherDisplay:10.37,2013-06-04 21:08:00,
2013-06-04 17:13:00,73.8,64.6,29.84,SSE,158,0.0,0.0,73,0.00,,,0.00,WeatherDisplay:10.37,2013-06-04 21:13:00,
2013-06-04 17:18:00,73.9,65.1,29.84,West,270,0.0,0.0,74,0.00,,,0.00,WeatherDisplay:10.37,2013-06-04 21:18:00,
2013-06-04 17:23:00,74.1,64.9,29.84,SW,225,0.0,0.0,73,0.00,,,0.00,WeatherDisplay:10.37,2013-06-04 21:23:00,
2013-06-04 17:28:00,74.1,64.9,29.85,SW,225,0.0,0.0,73,0.00,,,0.00,WeatherDisplay:10.37,2013-06-04 21:28:00,
2013-06-04 17:33:00,74.1,64.9,29.84,SW,225,0.0,0.0,73,0.00,,,0.00,WeatherDisplay:10.37,2013-06-04 21:33:00,
2013-06-04 17:38:00,73.9,64.7,29.84,South,180,0.0,0.0,73,0.00,,,0.00,WeatherDisplay:10.37,2013-06-04 21:38:00,
2013-06-04 17:43:00,73.8,65.0,29.84,South,180,0.0,0.0,74,0.00,,,0.00,WeatherDisplay:10.37,2013-06-04 21:43:00,
2013-06-04 17:48:00,73.9,65.1,29.84,SSW,202,0.0,0.0,74,0.00,,,0.00,WeatherDisplay:10.37,2013-06-04 21:48:00,
2013-06-04 17:53:00,73.9,65.1,29.83,SSW,202,0.0,0.0,74,0.00,,,0.00,WeatherDisplay:10.37,2013-06-04 21:53:00,
2013-06-04 17:58:00,73.9,64.7,29.84,SSW,202,0.0,0.0,73,0.00,,,0.00,WeatherDisplay:10.37,2013-06-04 21:58:00,
2013-06-04 18:03:00,73.9,64.7,29.84,SSW,202,0.0,0.0,73,0.00,,,0.00,WeatherDisplay:10.37,2013-06-04 22:03:00,
2013-06-04 18:08:00,73.6,64.8,29.84,SSW,202,0.0,0.0,74,0.00,,,0.00,WeatherDisplay:10.37,2013-06-04 22:08:00,
2013-06-04 18:13:00,73.6,64.8,29.84,South,180,0.0,0.0,74,0.00,,,0.00,WeatherDisplay:10.37,2013-06-04 22:13:00,
2013-06-04 18:18:00,73.2,64.4,29.84,South,180,0.0,0.0,74,0.00,,,0.00,WeatherDisplay:10.37,2013-06-04 22:18:00,
2013-06-04 18:23:00,73.0,64.3,29.84,South,180,0.0,0.0,74,0.00,,,0.00,WeatherDisplay:10.37,2013-06-04 22:23:00,
2013-06-04 18:28:00,72.7,63.9,29.84,South,180,0.0,0.0,74,0.00,,,0.00,WeatherDisplay:10.37,2013-06-04 22:28:00,
2013-06-04 18:33:00,72.3,63.6,29.84,South,180,0.0,0.0,74,0.00,,,0.00,WeatherDisplay:10.37,2013-06-04 22:33:00,
2013-06-04 18:38:00,72.3,63.9,29.84,South,180,0.0,0.0,75,0.00,,,0.00,WeatherDisplay:10.37,2013-06-04 22:38:00,
2013-06-04 18:43:00,72.3,63.9,29.84,WSW,248,0.0,0.0,75,0.00,,,0.00,WeatherDisplay:10.37,2013-06-04 22:43:00,
2013-06-04 18:48:00,72.3,63.9,29.84,WSW,248,0.0,0.0,75,0.00,,,0.00,WeatherDisplay:10.37,2013-06-04 22:48:00,
2013-06-04 18:53:00,72.3,63.9,29.84,WSW,248,0.0,0.0,75,0.00,,,0.00,WeatherDisplay:10.37,2013-06-04 22:53:00,
2013-06-04 18:58:00,72.5,64.5,29.84,SW,225,0.0,0.0,76,0.00,,,0.00,WeatherDisplay:10.37,2013-06-04 22:58:00,
2013-06-04 19:03:00,72.3,64.3,29.84,SW,225,0.0,0.0,76,0.00,,,0.00,WeatherDisplay:10.37,2013-06-04 23:03:00,
2013-06-04 19:08:00,72.3,64.3,29.85,SW,225,0.0,0.0,76,0.00,,,0.00,WeatherDisplay:10.37,2013-06-04 23:08:00,
2013-06-04 19:13:00,72.1,64.2,29.84,SW,225,0.0,0.0,76,0.00,,,0.00,WeatherDisplay:10.37,2013-06-04 23:13:00,
2013-06-04 19:18:00,72.0,64.0,29.85,SW,225,0.0,0.0,76,0.00,,,0.00,WeatherDisplay:10.37,2013-06-04 23:18:00,
2013-06-04 19:23:00,71.4,63.5,29.85,WSW,248,0.0,0.0,76,0.00,,,0.00,WeatherDisplay:10.37,2013-06-04 23:23:00,
2013-06-04 19:28:00,71.4,63.5,29.85,West,270,0.0,0.0,76,0.00,,,0.00,WeatherDisplay:10.37,2013-06-04 23:28:00,
2013-06-04 19:33:00,71.2,63.7,29.85,West,270,0.0,0.0,77,0.00,,,0.00,WeatherDisplay:10.37,2013-06-04 23:33:00,
2013-06-04 19:38:00,70.7,63.1,29.84,West,270,0.0,0.0,77,0.00,,,0.00,WeatherDisplay:10.37,2013-06-04 23:38:00,
2013-06-04 19:43:00,70.7,63.5,29.85,West,270,0.0,0.0,78,0.00,,,0.00,WeatherDisplay:10.37,2013-06-04 23:43:00,
2013-06-04 19:48:00,70.5,63.3,29.85,West,270,0.0,0.0,78,0.00,,,0.00,WeatherDisplay:10.37,2013-06-04 23:48:00,
2013-06-04 19:53:00,70.3,63.2,29.85,West,270,0.0,0.0,78,0.00,,,0.00,WeatherDisplay:10.37,2013-06-04 23:53:00,
2013-06-04 19:58:00,70.3,63.2,29.86,West,270,0.0,0.0,78,0.00,,,0.00,WeatherDisplay:10.37,2013-06-04 23:58:00,
2013-06-04 20:03:00,70.0,62.8,29.85,West,270,0.0,0.0,78,0.00,,,0.00,WeatherDisplay:10.37,2013-06-05 00:03:00,
2013-06-04 20:08:00,70.0,62.8,29.85,West,270,0.0,0.0,78,0.00,,,0.00,WeatherDisplay:10.37,2013-06-05 00:08:00,
2013-06-04 20:13:00,69.8,63.0,29.85,West,270,0.0,0.0,79,0.00,,,0.00,WeatherDisplay:10.37,2013-06-05 00:13:00,
2013-06-04 20:18:00,69.6,62.8,29.86,West,270,0.0,0.0,79,0.00,,,0.00,WeatherDisplay:10.37,2013-06-05 00:18:00,
2013-06-04 20:23:00,69.4,62.6,29.86,West,270,0.0,0.0,79,0.00,,,0.00,WeatherDisplay:10.37,2013-06-05 00:23:00,
2013-06-04 20:28:00,69.4,62.6,29.86,West,270,0.0,0.0,79,0.00,,,0.00,WeatherDisplay:10.37,2013-06-05 00:28:00,
2013-06-04 20:33:00,69.1,62.3,29.86,West,270,0.0,0.0,79,0.00,,,0.00,WeatherDisplay:10.37,2013-06-05 00:33:00,
2013-06-04 20:38:00,68.9,62.1,29.87,West,270,0.0,0.0,79,0.00,,,0.00,WeatherDisplay:10.37,2013-06-05 00:38:00,
2013-06-04 20:43:00,68.7,61.9,29.87,SW,225,0.0,0.0,79,0.00,,,0.00,WeatherDisplay:10.37,2013-06-05 00:43:00,
2013-06-04 20:48:00,68.7,61.9,29.87,WSW,248,0.0,0.0,79,0.00,,,0.00,WeatherDisplay:10.37,2013-06-05 00:48:00,
2013-06-04 20:53:00,68.5,62.1,29.88,WSW,248,0.0,0.0,80,0.00,,,0.00,WeatherDisplay:10.37,2013-06-05 00:53:00,
2013-06-04 20:58:00,68.5,62.1,29.88,SW,225,0.0,0.0,80,0.00,,,0.00,WeatherDisplay:10.37,2013-06-05 00:58:00,
2013-06-04 21:03:00,68.4,61.9,29.88,SW,225,0.0,0.0,80,0.00,,,0.00,WeatherDisplay:10.37,2013-06-05 01:03:00,
2013-06-04 21:08:00,68.4,61.9,29.87,SW,225,0.0,0.0,80,0.00,,,0.00,WeatherDisplay:10.37,2013-06-05 01:08:00,
2013-06-04 21:13:00,68.4,61.9,29.88,SW,225,0.0,0.0,80,0.00,,,0.00,WeatherDisplay:10.37,2013-06-05 01:13:00,
2013-06-04 21:18:00,68.4,62.3,29.88,SW,225,0.0,0.0,81,0.00,,,0.00,WeatherDisplay:10.37,2013-06-05 01:18:00,
2013-06-04 21:23:00,68.4,62.3,29.88,SW,225,0.0,0.0,81,0.00,,,0.00,WeatherDisplay:10.37,2013-06-05 01:23:00,
2013-06-04 21:28:00,68.4,62.3,29.88,SW,225,0.0,0.0,81,0.00,,,0.00,WeatherDisplay:10.37,2013-06-05 01:28:00,
2013-06-04 21:33:00,68.2,62.1,29.88,SW,225,0.0,0.0,81,0.00,,,0.00,WeatherDisplay:10.37,2013-06-05 01:33:00,
2013-06-04 21:38:00,68.2,62.1,29.88,WSW,248,0.0,0.0,81,0.00,,,0.00,WeatherDisplay:10.37,2013-06-05 01:38:00,
2013-06-04 21:43:00,68.2,62.1,29.88,SW,225,0.0,0.0,81,0.00,,,0.00,WeatherDisplay:10.37,2013-06-05 01:43:00,
2013-06-04 21:48:00,68.2,62.1,29.88,SW,225,0.0,0.0,81,0.00,,,0.00,WeatherDisplay:10.37,2013-06-05 01:48:00,
2013-06-04 21:53:00,68.2,62.1,29.88,SW,225,0.0,0.0,81,0.00,,,0.00,WeatherDisplay:10.37,2013-06-05 01:53:00,
2013-06-04 21:58:00,68.0,61.9,29.88,SW,225,0.0,0.0,81,0.00,,,0.00,WeatherDisplay:10.37,2013-06-05 01:58:00,
2013-06-04 22:03:00,67.8,61.8,29.89,SW,225,0.0,0.0,81,0.00,,,0.00,WeatherDisplay:10.37,2013-06-05 02:03:00,
2013-06-04 22:08:00,67.8,61.8,29.89,WSW,248,0.0,0.0,81,0.00,,,0.00,WeatherDisplay:10.37,2013-06-05 02:08:00,
2013-06-04 22:13:00,67.8,62.1,29.89,WSW,248,0.0,0.0,82,0.00,,,0.00,WeatherDisplay:10.37,2013-06-05 02:13:00,
2013-06-04 22:18:00,67.8,62.1,29.89,WSW,248,0.0,0.0,82,0.00,,,0.00,WeatherDisplay:10.37,2013-06-05 02:18:00,
2013-06-04 22:23:00,67.8,62.1,29.89,WSW,248,0.0,0.0,82,0.00,,,0.00,WeatherDisplay:10.37,2013-06-05 02:23:00,
2013-06-04 22:28:00,67.8,62.1,29.89,WSW,248,0.0,0.0,82,0.00,,,0.00,WeatherDisplay:10.37,2013-06-05 02:28:00,
2013-06-04 22:33:00,67.8,62.1,29.90,WSW,248,0.0,0.0,82,0.00,,,0.00,WeatherDisplay:10.37,2013-06-05 02:33:00,
2013-06-04 22:38:00,67.8,62.1,29.90,WSW,248,0.0,0.0,82,0.00,,,0.00,WeatherDisplay:10.37,2013-06-05 02:38:00,
2013-06-04 22:43:00,67.6,61.9,29.90,WSW,248,0.0,0.0,82,0.00,,,0.00,WeatherDisplay:10.37,2013-06-05 02:43:00,
2013-06-04 22:48:00,67.6,61.9,29.91,WSW,248,0.0,0.0,82,0.00,,,0.00,WeatherDisplay:10.37,2013-06-05 02:48:00,
2013-06-04 22:53:00,67.8,62.1,29.91,WSW,248,0.0,0.0,82,0.00,,,0.00,WeatherDisplay:10.37,2013-06-05 02:53:00,
2013-06-04 22:58:00,67.6,61.9,29.90,WSW,248,0.0,0.0,82,0.00,,,0.00,WeatherDisplay:10.37,2013-06-05 02:58:00,
2013-06-04 23:03:00,67.6,61.9,29.91,WSW,248,0.0,0.0,82,0.00,,,0.00,WeatherDisplay:10.37,2013-06-05 03:03:00,
2013-06-04 23:08:00,67.6,62.3,29.91,WSW,248,0.0,0.0,83,0.00,,,0.00,WeatherDisplay:10.37,2013-06-05 03:08:00,
2013-06-04 23:13:00,67.6,62.3,29.90,WSW,248,0.0,0.0,83,0.00,,,0.00,WeatherDisplay:10.37,2013-06-05 03:13:00,
2013-06-04 23:18:00,67.6,62.3,29.90,WSW,248,0.0,0.0,83,0.00,,,0.00,WeatherDisplay:10.37,2013-06-05 03:18:00,
2013-06-04 23:23:00,67.6,62.3,29.90,WSW,248,0.0,0.0,83,0.00,,,0.00,WeatherDisplay:10.37,2013-06-05 03:23:00,
2013-06-04 23:28:00,67.3,61.9,29.90,WSW,248,0.0,0.0,83,0.00,,,0.00,WeatherDisplay:10.37,2013-06-05 03:28:00,
2013-06-04 23:33:00,67.3,61.9,29.90,WSW,248,0.0,0.0,83,0.00,,,0.00,WeatherDisplay:10.37,2013-06-05 03:33:00,
2013-06-04 23:38:00,67.3,61.9,29.90,WSW,248,0.0,0.0,83,0.00,,,0.00,WeatherDisplay:10.37,2013-06-05 03:38:00,
2013-06-04 23:43:00,67.3,61.9,29.90,SW,225,0.0,0.0,83,0.00,,,0.00,WeatherDisplay:10.37,2013-06-05 03:43:00,
2013-06-04 23:48:00,67.3,61.9,29.90,WSW,248,0.0,0.0,83,0.00,,,0.00,WeatherDisplay:10.37,2013-06-05 03:48:00,
2013-06-04 23:53:00,67.1,61.8,29.89,West,270,0.0,0.0,83,0.00,,,0.00,WeatherDisplay:10.37,2013-06-05 03:53:00,
2013-06-04 23:58:00,66.9,61.6,29.90,West,270,0.0,0.0,83,0.00,,,0.00,WeatherDisplay:10.37,2013-06-05 03:58:00,